logo
App data

FIVE: Guardians of David

FIVE: Guardians of David is a Diablo-style action-RPG set in the ancient lands of Canaan. Lead and play the five heroes, battling across exotic locations filled with archaic cultures, rich characters, and powerful artifacts. Experience one of the greatest stories ever told in this 11-Act epic.
Store | Hub | SteamDB | Site
Developer: Kingdom Games Publisher: Kingdom Games
Genre: Action, Adventure, RPG
Languages: English, Spanish - Spain, German, Hungarian, Russian
Tags: Action (80), RPG (79), Adventure (66), Story Rich (54), Action RPG (46), Historical (41), Isometric (36), Hack and Slash (23), Indie (22)
Category: Single-player, Steam Achievements, Steam Trading Cards, Steam Cloud, Stats
Release date: Nov 24, 2015
Price: $9.99
Old userscore: 68% Metascore: 66%
Owners: 0 .. 20,000
Followers: 3,308
Peak concurrent players yesterday: 2
YouTube stats: 8 views and 0 comments for top 50 videos uploaded last week, 1 new videos uploaded yesterday.
Playtime total: 09:26 (average) 09:26 (median)

Steam Spy is still in beta, so expect major bugs.

Owners data:

Access restricted.

This feature is only available to users with special access rights. Sorry.

If you want to proceed, you need to register or log in first and then back Steam Spy on Patreon. Look for Indie or Pro pledge.

Don't forget to use the same email as on Steam Spy!

Audience in 2 weeks:

Access restricted.

This feature is only available to users with special access rights. Sorry.

If you want to proceed, you need to register or log in first and then back Steam Spy on Patreon. Look for Indie or Pro pledge.

Don't forget to use the same email as on Steam Spy!

Peak daily concurrent players:

CCU data courtesy of SteamDB. Used with permission.

Hourly concurrent players:

Daily Twitch stats:

Hourly Twitch stats:

Followers over time

Access restricted.

This feature is only available to users with special access rights. Sorry.

If you want to proceed, you need to register or log in first and then back Steam Spy on Patreon. Look for Indie or Pro pledge.

Don't forget to use the same email as on Steam Spy!

Views for top 50 videos on YouTube for this game:

Games similar to this one:

# Game Release date
Price
Score rank
(Userscore / Metascore)
Owners
Players
Playtime (Median)
1 Devil's Dare 悪魔の挑戦 Oct 21, 2014 $12.99N/A (N/A)20,000 .. 50,0000%00:00 (00:00)
2 Z Steel Soldiers Aug 1, 2014 $12.99N/A (N/A)50,000 .. 100,0000%00:00 (00:00)
3 Infinity Runner Jul 14, 2014 $6.99N/A (N/A/56%)0 .. 20,0000%00:00 (00:00)
4 Z Jul 4, 2014 $6.99N/A (N/A)100,000 .. 200,0000%00:00 (00:00)
5 Ubersoldier II Mar 25, 2014 $9.99N/A (N/A/62%)50,000 .. 100,0000%00:00 (00:00)
6 Battle Group 2 Jun 13, 2014 $7.99N/A (N/A)50,000 .. 100,0000%00:00 (00:00)
7 Ground Pounders Jul 15, 2014 $4.99N/A (N/A)0 .. 20,0000%00:00 (00:00)
8 Albedo: Eyes from Outer Space Apr 10, 2015 $14.99N/A (N/A/66%)20,000 .. 50,0000%00:00 (00:00)
9 Gun Metal Jan 16, 2014 $2.99N/A (N/A)200,000 .. 500,0000%00:00 (00:00)
10 Panzer Tactics HD May 22, 2014 $9.99N/A (N/A/69%)20,000 .. 50,0000%00:00 (00:00)
11 Meltdown Jun 5, 2014 $6.99N/A (N/A)100,000 .. 200,0000%00:00 (00:00)
12 RIVE: Wreck, Hack, Die, Retry! Sep 13, 2016 $14.99N/A (N/A)100,000 .. 200,0000%00:00 (00:00)
13 Ku: Shroud of the Morrigan Mar 17, 2014 $4.99N/A (N/A)20,000 .. 50,0000%00:00 (00:00)
14 Interplanetary May 12, 2015 N/AN/A (N/A)100,000 .. 200,0000%00:00 (00:00)
15 Shadow Blade: Reload Aug 10, 2015 $9.99N/A (N/A/70%)20,000 .. 50,0000%00:00 (00:00)
16 Abalone Apr 23, 2014 $1.74N/A (N/A)0 .. 20,0000%00:00 (00:00)
17 The Last Federation Apr 18, 2014 $19.99N/A (N/A/72%)50,000 .. 100,0000%00:00 (00:00)
18 RISK: Factions Mar 8, 2011 $9.99N/A (N/A/77%)100,000 .. 200,0000%00:00 (00:00)
19 Bulletstorm: Full Clip Edition Apr 7, 2017 $39.99N/A (N/A/76%)200,000 .. 500,0000%00:00 (00:00)
20 The Kings' Crusade Oct 8, 2010 $2.49N/A (N/A/71%)50,000 .. 100,0000%00:00 (00:00)
21 Zombie City Defense 2 Aug 19, 2016 $9.99N/A (N/A)0 .. 20,0000%00:00 (00:00)
22 Greed Corp Dec 10, 2010 $9.99N/A (N/A/76%)200,000 .. 500,0000%00:00 (00:00)
23 ROD: Revolt Of Defense Aug 12, 2016 $0.99N/A (N/A)20,000 .. 50,0000%00:00 (00:00)
24 Sword of the Stars II: Enhanced Edition Nov 30, 2012 $19.99N/A (N/A/65%)100,000 .. 200,0000%00:00 (00:00)
25 Slash or Die Jun 3, 2016 $2.99N/A (N/A)20,000 .. 50,0000%00:00 (00:00)
26 Commander: Conquest of the Americas Jul 30, 2010 $9.99N/A (N/A/68%)50,000 .. 100,0000%00:00 (00:00)
27 Battle Time Sep 29, 2016 $0.99N/A (N/A)50,000 .. 100,0000%00:00 (00:00)
28 The Haunted: Hells Reach Oct 24, 2011 $8.99N/A (N/A/51%)50,000 .. 100,0000%00:00 (00:00)
29 Smithy Jun 3, 2016 $3.99N/A (N/A)20,000 .. 50,0000%00:00 (00:00)
30 BitMaster Oct 12, 2016 $2.99N/A (N/A)100,000 .. 200,0000%00:00 (00:00)
31 Supreme Ruler 2020 Gold Jul 9, 2009 $9.99N/A (N/A/65%)20,000 .. 50,0000%00:00 (00:00)
32 Dead Rising 2: Off the Record Oct 11, 2011 $19.99N/A (N/A/66%)200,000 .. 500,0002.86%13:11 (04:23)
33 Syrian Warfare Feb 21, 2017 $13.99N/A (N/A)200,000 .. 500,0000%00:00 (00:00)
34 Majesty Gold HD Sep 4, 2009 $9.99N/A (N/A)100,000 .. 200,0000%00:00 (00:00)
35 Meridian: Squad 22 Aug 11, 2016 $14.99N/A (N/A)0 .. 20,0000%00:00 (00:00)
36 Star Wolves 3: Civil War Mar 2, 2010 $4.99N/A (N/A)100,000 .. 200,0000%00:00 (00:00)
37 Mr. Shifty Apr 13, 2017 $14.99N/A (N/A)100,000 .. 200,0000%00:00 (00:00)
38 Caster Mar 19, 2009 $1.99N/A (N/A)200,000 .. 500,0000%00:00 (00:00)
39 Magic Quest May 6, 2016 $1.99N/A (N/A)50,000 .. 100,0000%00:00 (00:00)
40 Theatre of War 2: Africa 1943 Jul 9, 2010 $4.99N/A (N/A/63%)50,000 .. 100,0000%00:00 (00:00)
41 FIVE: Champions of Canaan Sep 27, 2016 $3.99N/A (N/A)20,000 .. 50,0000%00:00 (00:00)
42 Delta Force 2 Jun 18, 2009 $4.99N/A (N/A)50,000 .. 100,0000%00:00 (00:00)
43 Codex of Victory Mar 16, 2017 $14.99N/A (N/A)20,000 .. 50,0000%00:00 (00:00)
44 Theatre of War 2: Kursk 1943 Jul 9, 2010 $4.99N/A (N/A)50,000 .. 100,0000%00:00 (00:00)
45 Woodle Tree 2: Worlds Sep 16, 2016 $3.99N/A (N/A)20,000 .. 50,0000%00:00 (00:00)
46 Disciples III - Renaissance Steam Special Edition Jul 16, 2010 $14.99N/A (N/A/56%)200,000 .. 500,0000%00:00 (00:00)
47 Rocketbirds 2 Evolution Jan 26, 2017 $9.99N/A (N/A)20,000 .. 50,0000%00:00 (00:00)
48 Making History II: The War of the World Aug 27, 2010 $14.99N/A (N/A/38%)20,000 .. 50,0000%00:00 (00:00)
49 Sorcerer King: Rivals Sep 22, 2016 $19.99N/A (N/A)20,000 .. 50,0000%00:00 (00:00)
50 Chaser Jul 16, 2010 $4.99N/A (N/A/66%)50,000 .. 100,0000%00:00 (00:00)
51 Purgatory Jun 22, 2016 $0.99N/A (N/A)50,000 .. 100,0000%00:00 (00:00)
52 Gratuitous Space Battles 2 Apr 16, 2015 $9.99N/A (N/A)20,000 .. 50,0000%00:00 (00:00)
53 Urban Empire Jan 20, 2017 $29.99N/A (N/A/62%)100,000 .. 200,0000%00:00 (00:00)
54 David. Feb 16, 2015 $1.99N/A (N/A)50,000 .. 100,0000%00:00 (00:00)
55 Trigger Runners Mar 3, 2016 $1.99N/A (N/A)0 .. 20,0000%00:00 (00:00)
56 The Bluecoats: North vs South Feb 2, 2015 $4.99N/A (N/A)50,000 .. 100,0000%00:00 (00:00)
57 Albino Lullaby: Episode 1 Sep 14, 2015 $9.99N/A (N/A)20,000 .. 50,0000%00:00 (00:00)
58 Rise & Shine Jan 13, 2017 $14.99N/A (N/A)50,000 .. 100,0000%00:00 (00:00)
59 Stay Dead Evolution Feb 4, 2015 $5.99N/A (N/A)20,000 .. 50,0000%00:00 (00:00)
60 Supercharged Robot VULKAISER Jun 4, 2015 $4.99N/A (N/A)20,000 .. 50,0000%00:00 (00:00)
61 Super Cyborg Jul 8, 2015 $4.99N/A (N/A)20,000 .. 50,0000%00:00 (00:00)
62 Ceres Oct 16, 2015 $19.99N/A (N/A/74%)0 .. 20,0000%00:00 (00:00)
63 Dustoff Heli Rescue Mar 6, 2015 $3.99N/A (N/A)20,000 .. 50,0000%00:00 (00:00)
64 Cultures - 8th Wonder of the World Mar 26, 2015 $0.79N/A (N/A)100,000 .. 200,0000%00:00 (00:00)
65 Lux Delux May 1, 2015 $9.99N/A (N/A)100,000 .. 200,0000%00:00 (00:00)
66 Fort Meow Jun 24, 2015 $7.99N/A (N/A)20,000 .. 50,0000%00:00 (00:00)
67 Samudai Feb 9, 2015 $0.99N/A (N/A)50,000 .. 100,0000%00:00 (00:00)
68 King of Dragon Pass Jul 28, 2015 $11.99N/A (N/A)20,000 .. 50,0000%00:00 (00:00)
69 Perimeter Apr 3, 2014 $3.99N/A (N/A/77%)20,000 .. 50,0000%00:00 (00:00)
70 The Entente Gold Jun 16, 2014 $1.99N/A (N/A)20,000 .. 50,0000%00:00 (00:00)
71 Marauder Apr 4, 2014 $9.99N/A (N/A)50,000 .. 100,0000%00:00 (00:00)
72 Enemy Mind Jun 6, 2014 $9.99N/A (N/A)100,000 .. 200,0000%00:00 (00:00)
73 7,62 High Calibre Apr 30, 2014 $0.99N/A (N/A)50,000 .. 100,0000%00:00 (00:00)
74 Zoo Empire Aug 1, 2004 $6.99N/A (N/A/59%)0 .. 20,0000%00:00 (00:00)
75 Disciples Sacred Lands Gold Oct 7, 2014 $7.99N/A (N/A)20,000 .. 50,0000%00:00 (00:00)
76 Hard Truck Apocalypse: Arcade / Ex Machina: Arcade May 24, 2007 $4.99N/A (N/A)0 .. 20,0000%00:00 (00:00)
77 Woolfe - The Red Hood Diaries Mar 17, 2015 $9.99N/A (N/A/55%)100,000 .. 200,0000%00:00 (00:00)
78 TY the Tasmanian Tiger 4 Sep 17, 2015 $5.99N/A (N/A)20,000 .. 50,0000%00:00 (00:00)
79 Strategic War in Europe Mar 21, 2014 $14.99N/A (N/A)20,000 .. 50,0000%00:00 (00:00)
80 8-Bit Commando Jul 27, 2011 $3.99N/A (N/A)50,000 .. 100,0000%00:00 (00:00)
81 The Campaign Series: Fall Weiss May 30, 2014 $14.99N/A (N/A)20,000 .. 50,0000%00:00 (00:00)
82 Perimeter: Emperor's Testament May 22, 2014 $3.99N/A (N/A/72%)20,000 .. 50,0000%00:00 (00:00)
83 Super Chibi Knight Jun 24, 2015 $2.49N/A (N/A)0 .. 20,0000%00:00 (00:00)
84 Freight Tycoon Inc. Apr 3, 2014 $4.99N/A (N/A)20,000 .. 50,0000%00:00 (00:00)
85 Battleplan: American Civil War Jul 4, 2014 $9.99N/A (N/A/66%)100,000 .. 200,0000%00:00 (00:00)
86 Fate of the World Feb 28, 2011 $9.99N/A (N/A/70%)50,000 .. 100,0000%00:00 (00:00)
87 Monday Night Combat Jan 24, 2011 $4.99N/A (N/A/82%)200,000 .. 500,0000%00:00 (00:00)
88 Defence to death May 11, 2017 $5.99N/A (N/A)20,000 .. 50,0000%00:00 (00:00)
89 A.R.E.S.: Extinction Agenda Jan 19, 2011 $4.99N/A (N/A/68%)50,000 .. 100,0000%00:00 (00:00)
90 Swords and Soldiers HD Dec 2, 2010 $9.99N/A (N/A)200,000 .. 500,0000%00:00 (00:00)
91 Tank Destroyer Mar 9, 2017 $0.99N/A (N/A)20,000 .. 50,0000%00:00 (00:00)
92 Demolition Inc. Sep 19, 2011 $5.99N/A (N/A)50,000 .. 100,0000%00:00 (00:00)
93 Delve Deeper Sep 24, 2010 $4.99N/A (N/A)50,000 .. 100,0000%00:00 (00:00)
94 Sudden Strike 2 Gold May 22, 2017 $5.99N/A (N/A)20,000 .. 50,0000%00:00 (00:00)
95 Atom Zombie Smasher Mar 14, 2011 $9.99N/A (N/A/75%)200,000 .. 500,0000%00:00 (00:00)
96 Fantasy Wars Aug 6, 2010 $4.99N/A (N/A/67%)50,000 .. 100,0000%00:00 (00:00)
97 Patrician IV - Steam Special Edition Sep 17, 2010 $14.99N/A (N/A/66%)100,000 .. 200,0000%00:00 (00:00)
98 Toadled Sep 22, 2016 $0.99N/A (N/A)50,000 .. 100,0000%00:00 (00:00)
99 Men of War: Vietnam Sep 8, 2011 $7.99N/A (N/A/68%)100,000 .. 200,0000%00:00 (00:00)
100 Dungeons Feb 10, 2011 $9.99N/A (N/A/65%)100,000 .. 200,0000%00:00 (00:00)
101 Double Dragon IV Jan 30, 2017 $6.99N/A (N/A/50%)50,000 .. 100,0000%00:00 (00:00)
102 Carrier Command: Gaea Mission Sep 28, 2012 $32.99N/A (N/A/60%)200,000 .. 500,0000%00:00 (00:00)
103 A Game of Thrones - Genesis Sep 28, 2011 $9.99N/A (N/A)100,000 .. 200,0000%00:00 (00:00)
104 Mysterium: A Psychic Clue Game Jan 12, 2017 $2.79N/A (N/A)50,000 .. 100,0000%00:00 (00:00)
105 Star Ruler Sep 20, 2010 $7.99N/A (N/A)100,000 .. 200,0000%00:00 (00:00)
106 Age of Wonders Oct 2010 $5.99N/A (N/A)100,000 .. 200,0000%00:00 (00:00)
107 rooMaze Mar 3, 2017 $0.49N/A (N/A)100,000 .. 200,0000%00:00 (00:00)
108 Sengoku Sep 15, 2011 $9.99N/A (N/A/70%)100,000 .. 200,0000%00:00 (00:00)
109 Age of Wonders Shadow Magic Oct 2010 $9.99N/A (N/A/82%)100,000 .. 200,0000%00:00 (00:00)
110 Civil War: Battle of Petersburg Feb 8, 2017 $0.99N/A (N/A)0 .. 20,0000%00:00 (00:00)
111 Heaven Forest NIGHTS Mar 14, 2017 $0.99N/A (N/A)500,000 .. 1,000,0000%00:00 (00:00)
112 Gnumz: Masters of Defense Dec 21, 2015 $4.99N/A (N/A)100,000 .. 200,0000%00:00 (00:00)
113 Redemption: Saints And Sinners Nov 18, 2016 $0.99N/A (N/A)50,000 .. 100,0000%00:00 (00:00)
114 Weapon of Choice Sep 23, 2015 $4.99N/A (N/A)0 .. 20,0000%00:00 (00:00)
115 TASTEE: Lethal Tactics May 10, 2016 $14.99N/A (N/A)20,000 .. 50,0000%00:00 (00:00)
116 Explosionade Sep 23, 2015 $3.99N/A (N/A)0 .. 20,0000%00:00 (00:00)
117 Skyshine's BEDLAM Sep 16, 2015 $19.99N/A (N/A/67%)50,000 .. 100,0000%00:00 (00:00)
118 Cuban Missile Crisis Mar 25, 2015 $4.99N/A (N/A)20,000 .. 50,0000%00:00 (00:00)
119 htoL#NiQ: The Firefly Diary May 18, 2016 $9.99N/A (N/A)20,000 .. 50,0000%00:00 (00:00)
120 Interloper May 21, 2015 FreeN/A (N/A/77%)20,000 .. 50,0000%00:00 (00:00)
121 Riddled Corpses Jun 2, 2015 $7.99N/A (N/A)20,000 .. 50,0000%00:00 (00:00)
122 Kick Ass Commandos Nov 17, 2016 $9.99N/A (N/A)0 .. 20,0000%00:00 (00:00)
123 Jim Power -The Lost Dimension Sep 30, 2015 $4.99N/A (N/A)0 .. 20,0000%00:00 (00:00)
124 Assassin’s Creed Chronicles: India Jan 12, 2016 $9.99N/A (N/A)50,000 .. 100,0000%00:00 (00:00)
125 Demons with Shotguns Apr 25, 2016 $9.99N/A (N/A)0 .. 20,0000%00:00 (00:00)
126 Once Bitten, Twice Dead! Jul 7, 2015 $4.99N/A (N/A)20,000 .. 50,0000%00:00 (00:00)
127 Nomad Fleet Jul 14, 2015 $0.49N/A (N/A)20,000 .. 50,0000%00:00 (00:00)
128 Merchants of Kaidan Nov 10, 2014 $14.99N/A (N/A)100,000 .. 200,0000%00:00 (00:00)
129 Momodora III Jul 1, 2014 $1.99N/A (N/A)50,000 .. 100,0000%00:00 (00:00)
130 Wars and Warriors: Joan of Arc Feb 7, 2004 $1.74N/A (N/A/60%)20,000 .. 50,0000%00:00 (00:00)
131 Kick-Ass 2 Aug 15, 2014 $19.99N/A (N/A)20,000 .. 50,0000%00:00 (00:00)
132 Evopollution Apr 23, 2014 $4.99N/A (N/A)0 .. 20,0000%00:00 (00:00)
133 Aeon Command Jul 3, 2014 $2.99N/A (N/A)20,000 .. 50,0000%00:00 (00:00)
134 Brigade E5: New Jagged Union Oct 17, 2006 $0.79N/A (N/A/41%)0 .. 20,0000%00:00 (00:00)
135 The Fall May 30, 2014 $9.99N/A (N/A/76%)200,000 .. 500,0000%00:00 (00:00)
136 Magnetic By Nature Nov 10, 2014 $9.99N/A (N/A)0 .. 20,0000%00:00 (00:00)
137 Royal Defense Nov 10, 2014 $0.49N/A (N/A)100,000 .. 200,0000%00:00 (00:00)
138 Orbital Gear Aug 7, 2014 $9.99N/A (N/A/59%)200,000 .. 500,0000%00:00 (00:00)
139 Smugglers 5 Apr 11, 2014 $3.99N/A (N/A)20,000 .. 50,0000%00:00 (00:00)
140 Rooks Keep Dec 5, 2014 $7.99N/A (N/A)0 .. 20,0000%00:00 (00:00)
141 NOBUNAGA'S AMBITION: Souzou (Traditional Chinese version) Aug 2014 $24.99N/A (N/A)20,000 .. 50,0000%00:00 (00:00)
142 The Few Jun 18, 2014 $7.99N/A (N/A)50,000 .. 100,0000%00:00 (00:00)
143 Elliot Quest Nov 10, 2014 $9.99N/A (N/A)20,000 .. 50,0000%00:00 (00:00)
144 Psichodelya Aug 8, 2014 $1.99N/A (N/A)50,000 .. 100,0000%00:00 (00:00)
145 Eufloria HD Oct 14, 2014 $14.99N/A (N/A)100,000 .. 200,0000%00:00 (00:00)
146 Warlock 2: The Exiled Apr 10, 2014 $19.99N/A (N/A/73%)50,000 .. 100,0000%00:00 (00:00)
147 Arma Tactics Oct 1, 2013 $8.99N/A (N/A/47%)200,000 .. 500,0000%00:00 (00:00)
148 Stellar Impact Apr 12, 2012 $9.99N/A (N/A/74%)50,000 .. 100,0000%00:00 (00:00)
149 Rise of Venice Sep 27, 2013 $4.99N/A (N/A/66%)50,000 .. 100,0000%00:00 (00:00)
150 Check vs Mate Aug 16, 2012 $19.99N/A (N/A/69%)0 .. 20,0000%00:00 (00:00)
151 Gatling Gears Aug 30, 2011 $9.99N/A (N/A)20,000 .. 50,0000%00:00 (00:00)
152 Conflict Desert Storm May 28, 2012 $6.99N/A (N/A/56%)50,000 .. 100,0000%00:00 (00:00)
153 Dungeons - The Dark Lord Sep 27, 2011 $19.99N/A (N/A/72%)100,000 .. 200,0000%00:00 (00:00)
154 Call of Duty: Black Ops - Mac Edition Sep 27, 2012 N/AN/A (N/A)50,000 .. 100,0000%00:00 (00:00)
155 Disciples III - Resurrection Oct 11, 2011 $14.99N/A (N/A/63%)100,000 .. 200,0000%00:00 (00:00)
156 Painkiller Hell & Damnation Oct 31, 2012 $19.99N/A (N/A/64%)200,000 .. 500,0000%00:00 (00:00)
157 Impire Feb 14, 2013 $4.99N/A (N/A/45%)100,000 .. 200,0000%00:00 (00:00)
158 Zeno Clash 2 Apr 30, 2013 $14.99N/A (N/A)200,000 .. 500,0000%00:00 (00:00)
159 Men of War: Condemned Heroes Apr 12, 2012 $7.99N/A (N/A/57%)100,000 .. 200,0000%00:00 (00:00)
160 Jagged Alliance 2 - Wildfire Mar 8, 2004 $6.99N/A (N/A)500,000 .. 1,000,0001.19%00:01 (00:00)
161 Jagged Alliance: Crossfire Aug 24, 2012 $14.99N/A (N/A/63%)100,000 .. 200,0000%00:00 (00:00)
162 Valley Aug 24, 2016 $14.99N/A (N/A)200,000 .. 500,0005.88%05:54 (01:58)
163 Pharaonic Apr 28, 2016 $14.99N/A (N/A)20,000 .. 50,0000%00:00 (00:00)
164 Incandescent Jun 30, 2015 $0.99N/A (N/A)20,000 .. 50,0000%00:00 (00:00)
165 After The End: The Harvest Jun 2, 2017 $0.99N/A (N/A)20,000 .. 50,0000%00:00 (00:00)
166 Lost in Paradise Aug 20, 2015 $2.99N/A (N/A)20,000 .. 50,0000%00:00 (00:00)
167 Mold on Pizza Sep 25, 2015 $5.99N/A (N/A)0 .. 20,0000%00:00 (00:00)
168 Kidnapped Aug 4, 2015 $2.99N/A (N/A)100,000 .. 200,0000%00:00 (00:00)
169 Defend The Highlands Nov 6, 2015 $9.99N/A (N/A)100,000 .. 200,0000%00:00 (00:00)
170 Cross of the Dutchman Sep 10, 2015 $8.99N/A (N/A/59%)20,000 .. 50,0000%00:00 (00:00)
171 Superstatic Sep 15, 2015 $4.99N/A (N/A)0 .. 20,0000%00:00 (00:00)
172 Zombie Party Jun 10, 2016 $9.99N/A (N/A)100,000 .. 200,0000%00:00 (00:00)
173 Island Defense Jul 23, 2015 $1.99N/A (N/A)20,000 .. 50,0000%00:00 (00:00)
174 Umihara Kawase Shun Nov 24, 2015 $11.99N/A (N/A)0 .. 20,0000%00:00 (00:00)
175 Biodrone Battle Jul 16, 2015 $1.99N/A (N/A)50,000 .. 100,0000%00:00 (00:00)
176 Dead But Alive! Southern England Oct 2, 2015 $5.99N/A (N/A)0 .. 20,0000%00:00 (00:00)
177 Tcheco in the Castle of Lucio Jun 22, 2015 $0.99N/A (N/A)50,000 .. 100,0000%00:00 (00:00)
178 Ninjahtic Jul 6, 2015 $1.99N/A (N/A)0 .. 20,0000%00:00 (00:00)
179 Othello Mar 19, 2015 N/AN/A (N/A)20,000 .. 50,0000%00:00 (00:00)
180 Khet 2.0 Oct 1, 2014 $9.99N/A (N/A)50,000 .. 100,0000%00:00 (00:00)
181 Gold Rush! Classic Dec 23, 1988 $2.99N/A (N/A)200,000 .. 500,0000%00:00 (00:00)
182 Supreme Ruler Ultimate Oct 17, 2014 $19.99N/A (N/A)50,000 .. 100,0000%00:00 (00:00)
183 The Nightmare Cooperative Jul 16, 2014 $4.99N/A (N/A)50,000 .. 100,0000%00:00 (00:00)
184 Foresight Nov 28, 2014 $4.99N/A (N/A)20,000 .. 50,0000%00:00 (00:00)
185 The Way May 20, 2016 $14.99N/A (N/A/67%)20,000 .. 50,0000%00:00 (00:00)
186 Sky Gamblers: Storm Raiders Jan 7, 2015 $9.99N/A (N/A)0 .. 20,0000%00:00 (00:00)
187 Rulers of Nations Jul 16, 2014 $19.99N/A (N/A/63%)20,000 .. 50,0000%00:00 (00:00)
188 Blue Estate The Game Apr 8, 2015 $12.99N/A (N/A/59%)50,000 .. 100,0000%00:00 (00:00)
189 Super Trench Attack! Jul 24, 2014 $4.99N/A (N/A)50,000 .. 100,0000%00:00 (00:00)
190 World War 2: Time of Wrath Jun 15, 2009 $0.99N/A (N/A)20,000 .. 50,0000%00:00 (00:00)
191 Spirits of Xanadu Mar 26, 2015 $4.99N/A (N/A)50,000 .. 100,0000%00:00 (00:00)
192 Heavy Fire: Afghanistan Aug 15, 2014 $2.99N/A (N/A)50,000 .. 100,0000%00:00 (00:00)
193 Warhammer 40,000: Armageddon Nov 26, 2014 $39.99N/A (N/A/68%)50,000 .. 100,0000%00:00 (00:00)
194 Nux Aug 15, 2014 $6.99N/A (N/A)200,000 .. 500,0000%00:00 (00:00)
195 Ys VI: The Ark of Napishtim Apr 28, 2015 $19.99N/A (N/A/76%)50,000 .. 100,0000%00:00 (00:00)
196 In Verbis Virtus Apr 3, 2015 $19.99N/A (N/A)50,000 .. 100,0000%00:00 (00:00)
197 Eador: Genesis Oct 14, 2013 $5.99N/A (N/A)50,000 .. 100,0000%00:00 (00:00)
198 Divinity: Dragon Commander Aug 6, 2013 $39.99N/A (N/A)200,000 .. 500,0000%00:00 (00:00)
199 Anomaly 2 May 15, 2013 $14.99N/A (N/A/77%)200,000 .. 500,0000%00:00 (00:00)
200 Sid Meier’s Ace Patrol Aug 27, 2013 $4.99N/A (N/A)200,000 .. 500,0000%00:00 (00:00)
201 Skyward Collapse May 23, 2013 $4.99N/A (N/A/64%)100,000 .. 200,0000%00:00 (00:00)
202 Sang-Froid - Tales of Werewolves Apr 5, 2013 FreeN/A (N/A/79%)200,000 .. 500,0000%00:00 (00:00)
203 PAC-MAN and the Ghostly Adventures Oct 29, 2013 $19.99N/A (N/A)0 .. 20,0000%00:00 (00:00)
204 Scourge: Outbreak Apr 2, 2014 $5.99N/A (N/A)100,000 .. 200,0000%00:00 (00:00)
205 Bleed Jul 3, 2013 $4.99N/A (N/A)50,000 .. 100,0000%00:00 (00:00)
206 March of the Eagles Feb 18, 2013 $19.99N/A (N/A/71%)50,000 .. 100,0000%00:00 (00:00)
207 Ittle Dew Jul 23, 2013 $9.99N/A (N/A/67%)100,000 .. 200,0000%00:00 (00:00)
208 Skulls of the Shogun Jul 29, 2013 $9.99N/A (N/A/72%)100,000 .. 200,0000%00:00 (00:00)
209 CastleStorm Jul 29, 2013 $9.99N/A (N/A/73%)100,000 .. 200,0000%00:00 (00:00)
210 Armada 2526 Gold Edition Feb 28, 2013 $19.99N/A (N/A/66%)20,000 .. 50,0000%00:00 (00:00)
211 Guncraft Aug 9, 2013 $14.99N/A (N/A/73%)100,000 .. 200,0000%00:00 (00:00)
212 Anodyne Mar 22, 2013 $9.99N/A (N/A/75%)100,000 .. 200,0000%00:00 (00:00)
213 CivCity: Rome Apr 6, 2007 $9.99N/A (N/A/67%)50,000 .. 100,0000%00:00 (00:00)
214 Ace of Protectors Jun 27, 2016 $1.99N/A (N/A)20,000 .. 50,0000%00:00 (00:00)
215 King Arthur - The Role-playing Wargame Nov 24, 2009 $9.99N/A (N/A)200,000 .. 500,0000%00:00 (00:00)
216 Klang Sep 22, 2016 $14.99N/A (N/A/71%)0 .. 20,0000%00:00 (00:00)
217 Civilization IV: Warlords Jul 24, 2006 $4.99N/A (N/A/84%)1,000,000 .. 2,000,0000%00:00 (00:00)
218 The Seven Years War (1756-1763) Oct 30, 2015 $19.99N/A (N/A)20,000 .. 50,0000%00:00 (00:00)
219 Crusaders: Thy Kingdom Come Oct 8, 2009 $9.99N/A (N/A)20,000 .. 50,0000%00:00 (00:00)
220 Corgi Warlock Dec 3, 2015 $1.99N/A (N/A)20,000 .. 50,0000%00:00 (00:00)
221 Ghost Master Dec 21, 2006 $4.99N/A (N/A/81%)100,000 .. 200,0000%00:00 (00:00)
222 The Juicer Sep 11, 2015 $0.99N/A (N/A)50,000 .. 100,0000%00:00 (00:00)
223 Elven Legacy Apr 7, 2009 $4.99N/A (N/A/71%)50,000 .. 100,0000%00:00 (00:00)
224 Monster Monpiece Mar 14, 2017 $9.99N/A (N/A)0 .. 20,0000%00:00 (00:00)
225 Making History: The Calm & the Storm Mar 13, 2007 $4.99N/A (N/A/70%)50,000 .. 100,0000%00:00 (00:00)
226 The Political Machine 2016 Feb 4, 2016 N/AN/A (N/A)50,000 .. 100,0000%00:00 (00:00)
227 Dangerous Waters Feb 7, 2006 $14.99N/A (N/A/82%)50,000 .. 100,0000%00:00 (00:00)
228 Ninjahtic Mind Tricks Jul 16, 2015 $1.99N/A (N/A)0 .. 20,0000%00:00 (00:00)
229 Lost Planet: Extreme Condition Jun 26, 2007 $14.99N/A (N/A/66%)200,000 .. 500,0000%00:00 (00:00)
230 Lethe - Episode One Aug 1, 2016 $14.99N/A (N/A)0 .. 20,0000%00:00 (00:00)
231 Act of War: Direct Action Mar 12, 2008 $1.19N/A (N/A/82%)50,000 .. 100,0000%00:00 (00:00)
232 Toy Odyssey: The Lost and Found Sep 20, 2016 $14.99N/A (N/A/66%)20,000 .. 50,0000%00:00 (00:00)
233 Warhammer 40,000: Dawn of War – Winter Assault Aug 7, 2007 $12.99N/A (N/A)500,000 .. 1,000,0000%00:00 (00:00)
234 Code of Princess Apr 14, 2016 $14.99N/A (N/A/53%)20,000 .. 50,0000%00:00 (00:00)
235 Fleet Command Oct 26, 2006 $9.99N/A (N/A)20,000 .. 50,0000%00:00 (00:00)
236 Command: Northern Inferno Oct 22, 2015 N/AN/A (N/A)0 .. 20,0000%00:00 (00:00)
237 Supreme Commander Sep 28, 2011 $12.99N/A (N/A/86%)1,000,000 .. 2,000,0000%00:00 (00:00)
238 Knight Adventure Oct 15, 2015 $0.99N/A (N/A)50,000 .. 100,0000%00:00 (00:00)
239 Advent Rising Sep 14, 2006 $9.99N/A (N/A/70%)50,000 .. 100,0000%00:00 (00:00)
240 Space Food Truck Mar 25, 2016 $9.99N/A (N/A)20,000 .. 50,0000%00:00 (00:00)
241 Heroes of Might & Magic V: Hammers of Fate Oct 10, 2008 $9.99N/A (N/A/66%)50,000 .. 100,0000%00:00 (00:00)
242 Galaxy Admirals Jan 17, 2017 $1.99N/A (N/A)50,000 .. 100,0000%00:00 (00:00)
243 BloodRayne Sep 14, 2006 $9.99N/A (N/A/65%)50,000 .. 100,0000%00:00 (00:00)
244 Little Big Adventure 2 Oct 20, 2015 $3.99N/A (N/A)50,000 .. 100,0000%00:00 (00:00)
245 Nuclear Dawn Sep 26, 2011 $9.99N/A (N/A/71%)200,000 .. 500,0000%00:00 (00:00)
246 Codename: Panzers, Phase Two Jul 21, 2005 $14.99N/A (N/A/80%)0 .. 20,0000%00:00 (00:00)
247 Deadlings: Rotten Edition Nov 11, 2014 $3.99N/A (N/A)50,000 .. 100,0000%00:00 (00:00)
248 Near Death Aug 2, 2016 $7.99N/A (N/A/70%)20,000 .. 50,0000%00:00 (00:00)
249 Magnifico Dec 2, 2014 $4.99N/A (N/A)0 .. 20,0000%00:00 (00:00)
250 Ironcast Mar 26, 2015 $2.99N/A (N/A/75%)20,000 .. 50,0000%00:00 (00:00)
251 Toren May 11, 2015 $9.99N/A (N/A/57%)100,000 .. 200,0000%00:00 (00:00)
252 7th Legion Oct 23, 2014 $1.74N/A (N/A)20,000 .. 50,0000%00:00 (00:00)
253 Wickland Feb 6, 2015 $0.99N/A (N/A)50,000 .. 100,0000%00:00 (00:00)
254 Prophour23 Oct 22, 2014 $9.99N/A (N/A)20,000 .. 50,0000%00:00 (00:00)
255 War, the Game Jan 12, 2015 $6.99N/A (N/A/65%)50,000 .. 100,0000%00:00 (00:00)
256 Hunters Of The Dead Sep 4, 2014 $4.99N/A (N/A)0 .. 20,0000%00:00 (00:00)
257 Desert Ashes Nov 10, 2014 $4.99N/A (N/A)20,000 .. 50,0000%00:00 (00:00)
258 Malebolgia May 6, 2015 $12.99N/A (N/A)20,000 .. 50,0000%00:00 (00:00)
259 Run or Die Dec 11, 2014 $4.99N/A (N/A)20,000 .. 50,0000%00:00 (00:00)
260 Platypus II Aug 15, 2014 $6.99N/A (N/A)200,000 .. 500,0000%00:00 (00:00)
261 FEIST Jul 23, 2015 $9.99N/A (N/A/65%)20,000 .. 50,0000%00:00 (00:00)
262 Gold Rush! Anniversary Nov 7, 2014 $5.99N/A (N/A)50,000 .. 100,0000%00:00 (00:00)
263 Hail to the King: Deathbat Oct 30, 2014 $5.99N/A (N/A)0 .. 20,0000%00:00 (00:00)
264 Platformines Mar 28, 2014 $9.99N/A (N/A/67%)50,000 .. 100,0000%00:00 (00:00)
265 PixelJunk Shooter Nov 11, 2013 $8.99N/A (N/A/73%)100,000 .. 200,0000%00:00 (00:00)
266 Deadly 30 Jan 8, 2014 $4.99N/A (N/A)100,000 .. 200,0000%00:00 (00:00)
267 Tank Operations: European Campaign Nov 22, 2013 N/AN/A (N/A)20,000 .. 50,0000%00:00 (00:00)
268 Meridian: New World Sep 26, 2014 $6.99N/A (N/A/43%)100,000 .. 200,0000%00:00 (00:00)
269 Distant Worlds: Universe May 23, 2014 $59.99N/A (N/A/81%)50,000 .. 100,0000%00:00 (00:00)
270 VelocityUltra Dec 12, 2013 $9.99N/A (N/A)20,000 .. 50,0000%00:00 (00:00)
271 Bedlam Oct 13, 2015 $12.99N/A (N/A/54%)100,000 .. 200,0000%00:00 (00:00)
272 ENSLAVED: Odyssey to the West Premium Edition Oct 24, 2013 $19.99N/A (N/A/70%)200,000 .. 500,0000%00:00 (00:00)
273 SPACECOM Sep 17, 2014 $9.99N/A (N/A/68%)100,000 .. 200,0000%00:00 (00:00)
274 Chainsaw Warrior Oct 7, 2013 $0.99N/A (N/A)100,000 .. 200,0000%00:00 (00:00)
275 Wyv and Keep: The Temple of the Lost Idol Aug 8, 2014 $14.99N/A (N/A)0 .. 20,0000%00:00 (00:00)
276 Anomaly Warzone Earth Mobile Campaign Nov 6, 2013 $4.99N/A (N/A)100,000 .. 200,0000%00:00 (00:00)
277 Guns n Zombies Oct 30, 2014 $7.99N/A (N/A)100,000 .. 200,0000%00:00 (00:00)
278 Zombie Tycoon 2: Brainhov's Revenge Dec 9, 2013 $4.99N/A (N/A)50,000 .. 100,0000%00:00 (00:00)
279 Major Mayhem Feb 24, 2014 $4.99N/A (N/A)20,000 .. 50,0000%00:00 (00:00)
280 Silent Storm Gold Edition Oct 2, 2013 $9.99N/A (N/A/83%)100,000 .. 200,0000%00:00 (00:00)
281 Revenge of Roger Rouge Apr 22, 2016 $0.99N/A (N/A)20,000 .. 50,0000%00:00 (00:00)
282 Neon Chrome Apr 28, 2016 $14.99N/A (N/A/74%)0 .. 20,0000%00:00 (00:00)
283 Blade Arcus from Shining: Battle Arena Jul 28, 2016 $29.99N/A (N/A)0 .. 20,0000%00:00 (00:00)
284 Phoning Home Feb 7, 2017 $19.99N/A (N/A/61%)20,000 .. 50,0000%00:00 (00:00)
285 Onechanbara Z2: Chaos Jun 2, 2016 $39.99N/A (N/A)20,000 .. 50,00025%07:59 (02:39)
286 Marvel: Ultimate Alliance 2 Jul 26, 2016 N/AN/A (N/A)0 .. 20,0000%00:00 (00:00)
287 REDCON Apr 22, 2016 $5.99N/A (N/A)50,000 .. 100,0000%00:00 (00:00)
288 A Blind Legend Apr 7, 2016 $6.99N/A (N/A)0 .. 20,0000%00:00 (00:00)
289 Gurgamoth Feb 16, 2016 $9.99N/A (N/A)20,000 .. 50,0000%00:00 (00:00)
290 Star Realms Mar 8, 2016 FreeN/A (N/A)100,000 .. 200,00016.67%01:26 (00:43)
291 Vector Strain Dec 9, 2015 $4.99N/A (N/A)20,000 .. 50,0000%00:00 (00:00)
292 Legends of Callasia Jun 10, 2016 FreeN/A (N/A)50,000 .. 100,0000%00:00 (00:00)
293 Into the Void Dec 4, 2015 $1.99N/A (N/A)20,000 .. 50,0000%00:00 (00:00)
294 Story Of the Survivor Feb 17, 2016 $4.99N/A (N/A)50,000 .. 100,0000%00:00 (00:00)
295 The Legend of Dark Witch Dec 1, 2015 $4.99N/A (N/A)20,000 .. 50,0000%00:00 (00:00)
296 Age of Gladiators Feb 25, 2016 $9.99N/A (N/A)20,000 .. 50,0000%00:00 (00:00)
297 Megamagic: Wizards of the Neon Age Apr 20, 2016 $9.99N/A (N/A/67%)20,000 .. 50,0000%00:00 (00:00)
298 ManaCollect Apr 17, 2015 $6.99N/A (N/A)0 .. 20,0000%00:00 (00:00)
299 Shadows of War Jan 2, 2015 $2.99N/A (N/A)20,000 .. 50,0000%00:00 (00:00)
300 Bet On Soldier Dec 5, 2014 $7.99N/A (N/A)50,000 .. 100,0000%00:00 (00:00)
301 Tallowmere Mar 3, 2015 $3.99N/A (N/A)20,000 .. 50,0000%00:00 (00:00)
302 Vietnam ‘65 Mar 5, 2015 $9.99N/A (N/A/81%)20,000 .. 50,0000%00:00 (00:00)
303 Armed with Wings: Rearmed Jun 1, 2017 $9.99N/A (N/A)20,000 .. 50,0000%00:00 (00:00)
304 Bloodsports.TV Mar 30, 2015 $9.99N/A (N/A/69%)50,000 .. 100,0000%00:00 (00:00)
305 Frozen Synapse Prime Nov 14, 2014 $24.99N/A (N/A/83%)100,000 .. 200,0000%00:00 (00:00)
306 Outcast 1.1 Dec 18, 2014 $5.99N/A (N/A)50,000 .. 100,0000%00:00 (00:00)
307 4089: Ghost Within Jan 9, 2015 $5.99N/A (N/A)0 .. 20,0000%00:00 (00:00)
308 Velocity 2X Aug 19, 2015 $19.99N/A (N/A)50,000 .. 100,0000%00:00 (00:00)
309 Battle Fleet 2 Nov 20, 2014 $14.99N/A (N/A)20,000 .. 50,0000%00:00 (00:00)
310 Strategy & Tactics: Wargame Collection Apr 22, 2016 $9.99N/A (N/A)20,000 .. 50,0000%00:00 (00:00)
311 Kaiju-A-GoGo Apr 23, 2015 $9.99N/A (N/A)20,000 .. 50,0000%00:00 (00:00)
312 Death Ray Manta SE Sep 17, 2015 $1.99N/A (N/A)20,000 .. 50,0000%00:00 (00:00)
313 Fortified Feb 3, 2016 $14.99N/A (N/A)500,000 .. 1,000,0000.88%02:16 (00:45)
314 Headlander Jul 25, 2016 $19.99N/A (N/A/74%)100,000 .. 200,0000%00:00 (00:00)

Tags over time:

Access restricted.

This feature is only available to users with special access rights. Sorry.

If you want to proceed, you need to register or log in first and then back Steam Spy on Patreon. Look for Indie or Pro pledge.

Don't forget to use the same email as on Steam Spy!

Owners of this game also own:

Access restricted.

This feature is only available to users with special access rights. Sorry.

If you want to proceed, you need to register or log in first and then back Steam Spy on Patreon. Look for Indie or Pro pledge.

Don't forget to use the same email as on Steam Spy!

Playtime distribution:

Access restricted.

This feature is only available to users with special access rights. Sorry.

If you want to proceed, you need to register or log in first and then back Steam Spy on Patreon. Look for Indie or Pro pledge.

Don't forget to use the same email as on Steam Spy!

Playtime (2 weeks):

Access restricted.

This feature is only available to users with special access rights. Sorry.

If you want to proceed, you need to register or log in first and then back Steam Spy on Patreon. Look for Indie or Pro pledge.

Don't forget to use the same email as on Steam Spy!

User reviews:

Login required.

Please register or log in to see this information.